Time;durP1;ratioP1;P1;durP2;ratioP2;P2;SDS_P1;SDS_P2;PMS_P1;PMS_P2;Temp;Humidity;BMP_temperature;BMP_pressure;BME280_temperature;BME280_humidity;BME280_pressure;Samples;Min_cycle;Max_cycle;Signal;HPM_P1;HPM_P2
2022/12/07 00:01:33;;;;;;;9.13;5.10;;;;;;;-2.31;70.18;99605.94;1773176;81;21072;-38
2022/12/07 00:04:04;;;;;;;7.15;5.10;;;;;;;-2.30;70.30;99615.50;1773694;81;21092;-39
2022/12/07 00:06:34;;;;;;;10.23;5.03;;;;;;;-2.26;70.12;99613.89;1773178;81;21017;-38
2022/12/07 10:08:28;;;;;;;11.25;6.37;;;;;;;0.03;79.47;99223.53;1756027;80;22799;-38
2022/12/07 10:10:56;;;;;;;8.38;6.22;;;;;;;0.22;78.39;99222.91;1751611;81;21087;-38
2022/12/07 10:13:35;;;;;;;11.78;6.65;;;;;;;0.29;78.17;99221.97;1742717;82;21136;-37
2022/12/07 10:16:03;;;;;;;14.43;6.95;;;;;;;0.32;77.47;99216.06;1741025;82;20937;-38
2022/12/07 10:18:38;;;;;;;14.00;6.80;;;;;;;0.34;77.12;99216.55;1742564;82;20910;-38
2022/12/07 10:21:13;;;;;;;11.73;6.33;;;;;;;0.32;76.56;99225.40;1742622;82;21613;-38
2022/12/07 10:23:42;;;;;;;11.30;6.45;;;;;;;0.34;76.40;99229.88;1742738;82;21509;-38
2022/12/07 10:26:36;;;;;;;7.47;4.85;;;;;;;0.31;76.12;99221.69;1742953;82;21085;-38
2022/12/07 10:29:14;;;;;;;12.25;6.78;;;;;;;0.35;76.00;99223.47;1742435;82;21820;-38
2022/12/07 10:31:41;;;;;;;11.40;6.97;;;;;;;0.36;76.00;99220.26;1729053;82;21080;-38
2022/12/07 10:34:31;;;;;;;12.58;7.15;;;;;;;0.40;75.58;99214.58;1742377;82;21066;-38
2022/12/07 10:37:17;;;;;;;11.45;6.80;;;;;;;0.38;75.56;99212.23;1742603;82;20965;-38
2022/12/07 10:39:49;;;;;;;13.08;7.47;;;;;;;0.41;75.46;99203.63;1742384;82;21232;-38
2022/12/07 10:42:31;;;;;;;10.95;7.05;;;;;;;0.38;75.05;99214.89;1742699;82;21545;-38
2022/12/07 10:45:17;;;;;;;11.18;7.12;;;;;;;0.37;75.15;99202.64;1738717;82;21012;-38
2022/12/07 10:48:11;;;;;;;13.13;6.58;;;;;;;0.37;75.29;99208.52;1742744;82;20961;-38
2022/12/07 10:51:07;;;;;;;11.50;6.65;;;;;;;0.37;75.09;99210.64;1742295;82;21092;-38
2022/12/07 10:53:42;;;;;;;9.45;6.53;;;;;;;0.35;75.13;99208.80;1742470;82;21137;-38
2022/12/07 10:56:20;;;;;;;12.65;6.65;;;;;;;0.42;75.60;99198.55;1742180;82;21044;-38
2022/12/07 10:59:17;;;;;;;11.97;6.55;;;;;;;0.51;75.10;99194.63;1742767;82;21045;-38
2022/12/07 11:02:04;;;;;;;8.50;6.05;;;;;;;0.56;75.00;99199.08;1741773;82;21518;-38
2022/12/07 11:04:57;;;;;;;10.13;7.03;;;;;;;0.57;75.19;99193.45;1741535;82;21025;-38
2022/12/07 11:07:41;;;;;;;10.90;6.58;;;;;;;0.59;75.31;99198.47;1695772;81;21243;-39
2022/12/07 11:10:39;;;;;;;10.48;6.70;;;;;;;0.59;75.27;99191.80;1730090;83;20902;-38
2022/12/07 11:13:27;;;;;;;10.60;6.65;;;;;;;0.61;75.04;99187.77;1729938;83;21248;-38
2022/12/07 11:16:11;;;;;;;9.13;6.67;;;;;;;0.65;75.13;99189.28;1727397;82;20990;-38
2022/12/07 11:18:47;;;;;;;9.40;6.42;;;;;;;0.70;74.83;99193.19;1729523;82;21095;-38
2022/12/07 11:21:54;;;;;;;9.75;6.67;;;;;;;0.73;74.50;99187.23;1729768;82;21233;-39
2022/12/07 11:24:59;;;;;;;10.25;6.20;;;;;;;0.72;74.38;99188.35;1729980;83;21050;-38
2022/12/07 11:27:38;;;;;;;8.15;5.62;;;;;;;0.73;74.44;99181.91;1729888;82;20962;-38
2022/12/07 11:30:21;;;;;;;11.38;6.37;;;;;;;0.76;74.48;99193.33;1730163;83;21056;-38
2022/12/07 11:32:57;;;;;;;7.85;5.50;;;;;;;0.81;74.18;99193.23;1730336;83;21053;-38
2022/12/07 11:35:59;;;;;;;8.28;6.03;;;;;;;0.82;74.35;99192.14;1722540;83;21158;-38
2022/12/07 11:38:55;;;;;;;9.98;5.80;;;;;;;0.85;74.30;99186.20;1730045;83;21025;-38
2022/12/07 11:41:29;;;;;;;10.13;7.35;;;;;;;0.81;74.07;99186.55;1729830;83;21078;-38
2022/12/07 11:44:24;;;;;;;13.13;6.15;;;;;;;0.78;74.17;99188.47;1730079;83;21555;-38
2022/12/07 11:47:03;;;;;;;11.12;6.10;;;;;;;0.74;74.38;99187.48;1730150;83;21037;-38
2022/12/07 11:49:53;;;;;;;10.13;6.28;;;;;;;0.75;74.47;99189.08;1729955;83;23182;-38
2022/12/07 11:52:31;;;;;;;11.50;5.67;;;;;;;0.71;74.60;99186.77;1730395;83;20930;-38
2022/12/07 11:54:58;;;;;;;8.05;5.40;;;;;;;0.73;74.69;99184.57;1730382;83;20997;-38
2022/12/07 11:57:45;;;;;;;10.98;5.87;;;;;;;0.76;74.81;99193.33;1729900;83;21523;-38
2022/12/07 12:00:16;;;;;;;9.08;5.87;;;;;;;0.72;75.05;99185.14;1730245;83;21000;-38
2022/12/07 12:03:10;;;;;;;9.13;5.45;;;;;;;0.70;75.22;99197.19;1730350;83;21099;-38
2022/12/07 12:05:36;;;;;;;11.05;5.67;;;;;;;0.70;75.36;99189.97;1730151;83;21487;-39
2022/12/07 12:08:14;;;;;;;8.75;5.65;;;;;;;0.69;75.52;99191.59;1691663;82;21545;-39
2022/12/07 12:11:04;;;;;;;10.45;5.92;;;;;;;0.71;75.61;99194.77;1742293;82;21545;-38
2022/12/07 12:13:52;;;;;;;9.50;6.00;;;;;;;0.80;75.63;99186.30;1742408;82;21025;-38
2022/12/07 12:16:58;;;;;;;9.45;6.42;;;;;;;0.82;75.63;99181.47;1742398;82;23159;-38
2022/12/07 12:19:30;;;;;;;12.55;5.95;;;;;;;0.79;75.78;99182.84;1742324;82;21016;-38
2022/12/07 12:22:04;;;;;;;8.30;6.53;;;;;;;0.75;76.10;99179.73;1742710;82;21020;-38
2022/12/07 12:24:36;;;;;;;13.60;6.40;;;;;;;0.73;76.19;99179.23;1736018;82;21096;-39
2022/12/07 12:27:05;;;;;;;10.03;6.28;;;;;;;0.76;76.20;99177.32;1742235;82;21041;-38
2022/12/07 12:29:40;;;;;;;8.08;5.75;;;;;;;0.76;76.22;99181.33;1742492;82;21248;-39
2022/12/07 12:32:24;;;;;;;9.50;6.25;;;;;;;0.81;76.10;99180.67;1742552;82;20930;-39
2022/12/07 12:35:23;;;;;;;8.70;6.15;;;;;;;0.79;76.21;99172.71;1742323;82;20938;-38
2022/12/07 12:37:52;;;;;;;10.97;6.17;;;;;;;0.76;76.42;99184.78;1742571;82;21523;-38
2022/12/07 12:40:31;;;;;;;7.45;5.70;;;;;;;0.70;76.62;99175.30;1719598;82;20930;-38
2022/12/07 12:42:58;;;;;;;7.55;4.25;;;;;;;0.76;76.81;99171.45;1742769;82;21103;-39
2022/12/07 12:45:31;;;;;;;9.43;5.87;;;;;;;0.88;76.72;99164.23;1742321;82;20930;-38
2022/12/07 12:48:03;;;;;;;10.70;6.25;;;;;;;0.87;76.71;99170.12;1742104;82;21471;-38
2022/12/07 12:50:37;;;;;;;9.30;6.00;;;;;;;0.86;76.89;99175.77;1742399;82;21547;-38
2022/12/07 12:53:24;;;;;;;9.45;6.40;;;;;;;0.86;77.01;99174.44;1742409;82;21096;-38
2022/12/07 12:56:21;;;;;;;8.10;5.47;;;;;;;0.90;76.94;99173.29;1742256;82;21203;-39
2022/12/07 12:58:48;;;;;;;9.35;5.42;;;;;;;0.92;76.88;99173.22;1742250;82;21490;-38
2022/12/07 13:01:39;;;;;;;7.75;5.40;;;;;;;0.92;76.98;99169.22;1742423;82;21032;-39
2022/12/07 13:04:26;;;;;;;9.05;5.67;;;;;;;0.92;77.08;99173.22;1742093;82;21069;-38
2022/12/07 13:06:53;;;;;;;7.25;5.15;;;;;;;0.91;77.11;99175.67;1681074;82;21053;-39
2022/12/07 13:09:24;;;;;;;7.62;5.65;;;;;;;0.97;77.00;99173.11;1742238;82;21168;-38
2022/12/07 13:12:00;;;;;;;7.97;6.00;;;;;;;1.05;76.76;99182.30;1742409;82;21070;-39
2022/12/07 13:14:41;;;;;;;11.38;5.80;;;;;;;1.00;76.87;99175.20;1742175;82;21021;-38
2022/12/07 13:17:34;;;;;;;8.38;5.80;;;;;;;0.97;77.15;99178.45;1742333;82;20985;-38
2022/12/07 13:20:07;;;;;;;9.13;6.22;;;;;;;0.97;77.30;99175.02;1701464;82;21013;-38
2022/12/07 13:22:39;;;;;;;7.17;5.42;;;;;;;0.94;77.23;99173.72;1742278;82;21531;-38
2022/12/07 13:25:20;;;;;;;9.05;5.60;;;;;;;0.98;77.19;99176.03;1742295;82;20945;-38
2022/12/07 13:28:10;;;;;;;8.93;6.08;;;;;;;0.95;77.24;99172.64;1742435;82;20981;-38
2022/12/07 13:31:01;;;;;;;10.93;6.20;;;;;;;0.90;77.53;99175.41;1742531;82;20969;-38
2022/12/07 13:33:28;;;;;;;8.35;5.75;;;;;;;0.91;77.65;99179.67;1742484;82;20990;-38
2022/12/07 13:35:56;;;;;;;8.03;5.67;;;;;;;0.93;77.70;99193.48;1742739;82;21102;-39
2022/12/07 13:38:33;;;;;;;8.63;6.00;;;;;;;1.03;77.64;99187.14;1742340;82;21029;-39
2022/12/07 13:41:13;;;;;;;10.28;6.20;;;;;;;1.06;77.51;99179.88;1742471;82;20926;-39
2022/12/07 13:44:07;;;;;;;9.53;7.05;;;;;;;1.04;77.50;99178.05;1739336;82;26504;-39
2022/12/07 13:46:55;;;;;;;10.88;6.17;;;;;;;1.00;77.63;99176.53;1741230;82;21088;-38
2022/12/07 13:49:27;;;;;;;7.75;6.00;;;;;;;1.04;77.54;99177.50;1742496;82;21239;-38
2022/12/07 13:51:54;;;;;;;8.20;6.20;;;;;;;1.13;77.39;99174.36;1742322;82;21024;-39
2022/12/07 13:54:22;;;;;;;9.93;6.70;;;;;;;1.16;77.32;99171.65;1742312;82;20973;-39
2022/12/07 13:56:51;;;;;;;9.50;6.78;;;;;;;1.14;77.31;99165.27;1742377;82;21033;-39
2022/12/07 13:59:24;;;;;;;10.82;6.83;;;;;;;1.11;77.23;99161.88;1742834;82;21535;-39
2022/12/07 14:01:52;;;;;;;11.15;6.60;;;;;;;1.05;77.29;99151.06;1742275;82;21203;-39
2022/12/07 14:04:35;;;;;;;12.80;8.35;;;;;;;1.05;77.20;99149.73;1742469;82;21073;-39
2022/12/07 14:07:25;;;;;;;10.70;7.87;;;;;;;1.10;77.02;99150.95;1742509;82;21515;-39
2022/12/07 14:09:59;;;;;;;13.62;8.00;;;;;;;1.06;77.30;99157.19;1660950;86;21045;-39
2022/12/07 14:12:27;;;;;;;11.40;8.08;;;;;;;1.05;77.41;99144.39;1721525;82;21044;-39
2022/12/07 14:14:54;;;;;;;11.93;7.70;;;;;;;1.03;77.42;99135.88;1742481;82;21061;-39
2022/12/07 14:17:24;;;;;;;12.60;8.90;;;;;;;1.03;77.03;99136.42;1742201;82;21610;-39
2022/12/07 14:19:59;;;;;;;13.20;9.18;;;;;;;1.00;76.88;99131.16;1742666;82;20949;-39
2022/12/07 14:22:35;;;;;;;12.90;9.38;;;;;;;0.88;77.04;99120.20;1742069;82;21514;-39
2022/12/07 14:25:13;;;;;;;13.25;8.10;;;;;;;0.79;77.44;99123.34;1742378;82;21100;-39
2022/12/07 14:27:40;;;;;;;12.45;8.10;;;;;;;0.76;77.53;99121.29;1742299;82;21515;-39
2022/12/07 14:30:13;;;;;;;12.78;8.35;;;;;;;0.77;77.53;99119.67;1719211;82;21032;-39
2022/12/07 14:32:40;;;;;;;12.13;8.43;;;;;;;0.77;77.46;99137.02;1741726;82;21522;-39
2022/12/07 14:35:13;;;;;;;11.78;8.63;;;;;;;0.73;77.77;99129.88;1742095;82;21557;-39
2022/12/07 14:37:41;;;;;;;10.88;8.25;;;;;;;0.70;77.94;99132.61;1742103;82;21032;-39
2022/12/07 14:40:18;;;;;;;12.25;6.72;;;;;;;0.70;77.97;99130.48;1742374;82;21781;-39
2022/12/07 18:18:05;;;;;;;10.10;7.87;;;;;;;0.62;87.47;99153.88;1843255;76;22147;-38
2022/12/07 18:20:32;;;;;;;12.85;8.88;;;;;;;0.74;86.66;99162.14;1807146;79;20930;-38
2022/12/07 18:22:59;;;;;;;12.75;9.40;;;;;;;0.77;86.94;99149.56;1801456;79;21086;-38
2022/12/07 18:25:26;;;;;;;15.85;9.60;;;;;;;0.51;87.01;99097.28;1801342;79;20923;-38
2022/12/07 18:27:52;;;;;;;11.05;7.83;;;;;;;0.86;86.86;99131.75;1801347;79;21515;-38
2022/12/07 18:30:19;;;;;;;10.88;7.80;;;;;;;0.92;86.53;99137.77;1801531;79;21544;-39
2022/12/07 18:32:46;;;;;;;12.55;8.03;;;;;;;1.00;86.00;99136.49;1801436;79;20950;-39
2022/12/07 18:35:12;;;;;;;12.28;9.05;;;;;;;1.01;85.55;99132.74;1801519;79;21114;-38
2022/12/07 18:37:40;;;;;;;11.18;8.25;;;;;;;0.99;85.38;99132.23;1803417;79;21584;-38
2022/12/07 18:40:09;;;;;;;10.90;8.35;;;;;;;0.97;85.19;99132.31;1814734;79;20995;-39
2022/12/07 18:42:35;;;;;;;8.10;5.40;;;;;;;0.97;85.02;99134.41;1783480;79;21032;-39
2022/12/07 18:45:04;;;;;;;10.23;7.22;;;;;;;1.03;84.41;99142.55;1814621;79;20976;-39
2022/12/07 18:47:30;;;;;;;9.85;6.67;;;;;;;1.11;83.94;99148.53;1814651;79;21123;-39
2022/12/07 18:49:57;;;;;;;9.40;7.42;;;;;;;1.14;83.95;99147.12;1814403;78;21475;-39
2022/12/07 18:52:24;;;;;;;9.65;7.08;;;;;;;1.14;83.56;99147.91;1814593;78;21541;-39
2022/12/07 18:54:50;;;;;;;10.15;7.30;;;;;;;1.14;83.33;99161.27;1814724;78;21072;-39
2022/12/07 18:57:18;;;;;;;15.13;10.93;;;;;;;1.15;83.13;99173.52;1814777;78;21024;-39
2022/12/07 18:59:45;;;;;;;7.72;6.42;;;;;;;1.20;82.67;99172.08;1814733;79;21129;-40
2022/12/07 19:02:12;;;;;;;9.03;6.85;;;;;;;1.28;82.32;99169.22;1814693;79;21000;-39
2022/12/07 19:04:39;;;;;;;8.95;7.03;;;;;;;1.33;82.01;99168.31;1814579;78;20996;-39
2022/12/07 19:07:05;;;;;;;8.88;6.78;;;;;;;1.33;81.72;99156.29;1814535;79;21001;-39
2022/12/07 19:09:32;;;;;;;8.93;7.10;;;;;;;1.33;81.59;99161.09;1814676;79;21083;-39
2022/12/07 19:12:02;;;;;;;7.03;6.05;;;;;;;1.34;81.25;99164.01;1814843;78;21529;-39
2022/12/07 19:14:33;;;;;;;8.33;5.70;;;;;;;1.38;81.01;99159.63;1814427;78;20913;-39
2022/12/07 19:17:04;;;;;;;7.80;5.70;;;;;;;1.51;80.49;99156.64;1814539;79;20925;-39
2022/12/07 19:19:38;;;;;;;8.13;6.28;;;;;;;1.56;80.16;99155.98;1814760;79;21028;-39
2022/12/07 19:22:06;;;;;;;7.55;6.33;;;;;;;1.58;80.09;99153.80;1814459;79;21080;-39
2022/12/07 19:24:33;;;;;;;8.08;6.85;;;;;;;1.61;79.85;99155.06;1814422;79;21538;-39
2022/12/07 19:27:00;;;;;;;8.30;6.70;;;;;;;1.62;79.65;99155.31;1814457;78;21016;-39
2022/12/07 19:29:30;;;;;;;8.80;6.35;;;;;;;1.62;79.35;99148.09;1813741;78;21495;-39
2022/12/07 19:32:00;;;;;;;7.10;5.58;;;;;;;1.64;78.99;99155.80;1813778;78;21041;-39
2022/12/07 19:34:27;;;;;;;;;;;;;;;1.68;78.54;99156.22;1816706;79;21027;-39
2022/12/07 19:36:53;;;;;;;7.03;5.67;;;;;;;1.65;78.38;99152.81;1813832;79;21276;-39
2022/12/07 19:39:21;;;;;;;10.28;6.85;;;;;;;1.52;78.81;99148.34;1813681;79;21487;-39
2022/12/07 19:41:47;;;;;;;9.65;7.22;;;;;;;1.54;78.75;99145.37;1813901;78;20996;-39
2022/12/07 19:44:19;;;;;;;9.58;7.17;;;;;;;1.53;78.59;99145.13;1813847;78;20965;-39
2022/12/07 19:46:49;;;;;;;9.00;6.42;;;;;;;1.52;78.56;99139.53;1813893;78;21024;-39
2022/12/07 19:49:17;;;;;;;7.40;5.95;;;;;;;1.52;78.46;99142.99;1814144;78;21483;-39
2022/12/07 19:51:48;;;;;;;8.55;6.42;;;;;;;1.59;78.31;99142.03;1813900;79;21502;-40
2022/12/07 19:54:17;;;;;;;9.33;6.87;;;;;;;1.61;78.35;99139.83;1813913;79;20957;-39
2022/12/07 19:56:46;;;;;;;9.43;7.20;;;;;;;1.64;78.47;99141.91;1814161;79;21036;-39
2022/12/07 19:59:13;;;;;;;9.23;7.10;;;;;;;1.69;78.35;99140.98;1813971;79;21024;-39
2022/12/07 20:01:40;;;;;;;9.58;7.00;;;;;;;1.68;78.09;99134.84;1814106;79;21765;-39
2022/12/07 20:04:15;;;;;;;8.78;6.72;;;;;;;1.69;77.74;99139.08;1813891;78;21023;-39
2022/12/07 20:06:42;;;;;;;8.60;6.33;;;;;;;1.76;77.63;99137.31;1814182;79;20917;-39
2022/12/07 20:09:09;;;;;;;9.48;6.80;;;;;;;1.81;77.44;99140.41;1813805;79;21029;-39
2022/12/07 20:14:21;;;;;;;9.50;7.08;;;;;;;1.78;77.52;99144.48;1813913;78;21899;-39
2022/12/07 20:16:48;;;;;;;9.23;7.08;;;;;;;1.74;77.43;99144.86;1816996;78;21531;-39
2022/12/07 20:19:15;;;;;;;7.92;6.67;;;;;;;1.67;77.44;99142.62;1831537;78;20999;-39
2022/12/07 20:21:43;;;;;;;8.38;6.60;;;;;;;1.67;77.47;99146.63;1831427;78;21343;-39
2022/12/07 20:24:16;;;;;;;7.67;6.40;;;;;;;1.72;77.27;99132.34;1831603;78;21602;-39
2022/12/07 20:26:44;;;;;;;7.83;6.05;;;;;;;1.74;77.17;99143.53;1831981;78;21548;-39
2022/12/07 20:29:15;;;;;;;8.43;6.67;;;;;;;1.69;77.34;99142.32;1831808;78;20971;-39
2022/12/07 20:31:42;;;;;;;7.58;6.45;;;;;;;1.64;77.45;99145.12;1802375;78;21003;-39
2022/12/07 20:34:10;;;;;;;7.08;5.97;;;;;;;1.64;77.62;99151.25;1831405;78;21059;-39
2022/12/07 20:36:36;;;;;;;8.78;6.10;;;;;;;1.68;77.47;99148.21;1831880;78;21620;-39
2022/12/07 20:39:04;;;;;;;7.97;6.45;;;;;;;1.72;77.24;99149.72;1831695;78;21135;-39
2022/12/07 20:44:17;;;;;;;9.25;7.25;;;;;;;1.70;77.40;99152.69;1831638;78;21493;-39
2022/12/07 20:46:44;;;;;;;7.97;6.75;;;;;;;1.67;77.47;99149.84;1831798;78;21003;-39
2022/12/07 20:49:12;;;;;;;8.88;7.10;;;;;;;1.65;77.52;99154.14;1831340;78;21055;-39
2022/12/07 20:51:39;;;;;;;8.90;6.62;;;;;;;1.64;77.64;99155.80;1831680;78;21033;-39
2022/12/07 20:54:06;;;;;;;9.00;6.60;;;;;;;1.69;77.45;99162.36;1831393;78;20952;-39
2022/12/07 20:56:33;;;;;;;11.95;7.40;;;;;;;1.76;77.26;99157.36;1831459;78;20956;-39
2022/12/07 20:59:01;;;;;;;8.98;6.95;;;;;;;1.75;77.23;99151.77;1831405;78;21481;-39
2022/12/07 21:01:28;;;;;;;10.35;6.87;;;;;;;1.75;77.43;99155.77;1831742;78;21014;-39
2022/12/07 21:03:56;;;;;;;10.70;8.18;;;;;;;1.77;77.50;99158.94;1831380;78;21211;-39
2022/12/07 21:06:25;;;;;;;14.80;8.00;;;;;;;1.80;77.56;99161.53;1831562;78;21569;-39
2022/12/07 21:08:55;;;;;;;10.53;7.67;;;;;;;1.81;77.41;99161.23;1828751;78;21485;-39
2022/12/07 21:11:22;;;;;;;10.30;7.35;;;;;;;1.80;77.21;99158.86;1831416;78;20960;-39
2022/12/07 21:13:49;;;;;;;10.20;7.70;;;;;;;1.84;77.01;99152.59;1831465;78;21063;-39
2022/12/07 21:16:19;;;;;;;9.63;7.33;;;;;;;1.87;77.15;99152.00;1831429;78;21133;-39
2022/12/07 21:18:46;;;;;;;11.45;8.28;;;;;;;1.86;77.20;99159.77;1833153;78;20932;-39
2022/12/07 21:21:17;;;;;;;11.95;8.25;;;;;;;1.82;77.24;99154.80;1834483;78;21027;-39
2022/12/07 21:23:45;;;;;;;10.88;8.35;;;;;;;1.78;77.48;99153.84;1834427;78;20919;-39
2022/12/07 21:26:14;;;;;;;10.35;7.75;;;;;;;1.76;77.54;99156.02;1834561;78;21004;-39
2022/12/07 21:28:41;;;;;;;9.85;7.25;;;;;;;1.73;77.62;99164.12;1834604;78;21250;-40
2022/12/07 21:31:08;;;;;;;11.30;7.62;;;;;;;1.77;77.54;99174.98;1834291;78;21011;-39
2022/12/07 21:33:38;;;;;;;11.63;8.15;;;;;;;1.75;77.78;99166.46;1834500;78;20984;-39
2022/12/07 21:36:06;;;;;;;;;;;;;;;1.74;78.07;99162.23;1837276;78;20912;-39
2022/12/07 21:38:33;;;;;;;13.38;7.92;;;;;;;1.71;78.12;99164.16;1834650;78;20140;-39
2022/12/07 21:41:00;;;;;;;10.50;7.78;;;;;;;1.61;78.60;99163.87;1834457;78;23155;-39
2022/12/07 21:43:27;;;;;;;10.35;7.22;;;;;;;1.68;78.58;99159.44;1806479;78;20998;-40
2022/12/07 21:45:54;;;;;;;12.20;7.33;;;;;;;1.77;78.43;99157.60;1834577;78;20928;-39
2022/12/07 21:48:20;;;;;;;12.80;7.83;;;;;;;1.83;78.30;99164.95;1834246;78;20991;-39
2022/12/07 21:50:47;;;;;;;11.88;8.00;;;;;;;1.83;78.49;99167.08;1834274;78;20996;-39
2022/12/07 21:53:14;;;;;;;20.12;8.95;;;;;;;1.86;78.68;99171.80;1834245;78;21153;-39
2022/12/07 21:55:43;;;;;;;11.28;7.92;;;;;;;1.85;78.62;99166.20;1834359;78;20979;-39
2022/12/07 21:58:10;;;;;;;9.05;6.83;;;;;;;1.89;78.57;99174.42;1834464;78;20968;-39
2022/12/07 22:00:37;;;;;;;9.38;6.67;;;;;;;1.93;78.38;99176.17;1834287;78;21058;-39
2022/12/07 22:03:04;;;;;;;12.63;8.18;;;;;;;1.97;78.49;99172.34;1834127;78;21451;-39
2022/12/07 22:05:31;;;;;;;13.25;7.72;;;;;;;1.99;78.56;99174.92;1834362;78;21123;-39
2022/12/07 22:07:58;;;;;;;9.75;7.50;;;;;;;1.98;78.73;99174.71;1834294;78;20940;-39
2022/12/07 22:10:27;;;;;;;14.38;7.97;;;;;;;1.97;78.85;99177.14;1834078;78;21072;-39
2022/12/07 22:12:56;;;;;;;11.28;7.83;;;;;;;2.01;78.93;99187.45;1834390;78;20892;-40
2022/12/07 22:15:23;;;;;;;10.95;7.40;;;;;;;2.05;78.78;99193.76;1834285;78;21493;-40
2022/12/07 22:17:50;;;;;;;13.70;7.67;;;;;;;2.08;78.53;99191.04;1827329;78;21128;-39
2022/12/07 22:20:19;;;;;;;15.88;8.28;;;;;;;2.08;78.63;99187.03;1813818;78;20913;-39
2022/12/07 22:22:46;;;;;;;14.25;8.70;;;;;;;2.07;78.96;99184.90;1814099;78;21028;-39
2022/12/07 22:25:15;;;;;;;12.18;8.20;;;;;;;2.04;78.92;99190.05;1813823;78;22078;-39
